Time;durP1;ratioP1;P1;durP2;ratioP2;P2;SDS_P1;SDS_P2;PMS_P1;PMS_P2;Temp;Humidity;BMP_temperature;BMP_pressure;BME280_temperature;BME280_humidity;BME280_pressure;Samples;Min_cycle;Max_cycle;Signal;HPM_P1;HPM_P2
2022/10/09 00:00:08;;;;;;;15.85;7.10;;;8.60;99.90;;;;;;4937258;28;94358;-30
2022/10/09 00:02:34;;;;;;;20.52;8.07;;;8.60;99.90;;;;;;4934434;28;96036;-30
2022/10/09 00:04:59;;;;;;;8.38;5.85;;;8.50;99.90;;;;;;4936758;28;94317;-31
2022/10/09 00:07:25;;;;;;;14.15;8.07;;;8.50;99.90;;;;;;4937236;28;92441;-31
2022/10/09 00:09:51;;;;;;;18.13;7.57;;;8.50;99.90;;;;;;4936579;28;94546;-30
2022/10/09 00:12:16;;;;;;;11.27;6.55;;;8.50;99.90;;;;;;4937171;28;94411;-30
2022/10/09 00:14:42;;;;;;;9.30;6.95;;;8.50;99.90;;;;;;4936269;28;94259;-31
2022/10/09 00:17:07;;;;;;;16.35;7.03;;;8.50;99.90;;;;;;4936668;28;93549;-31
2022/10/09 00:19:33;;;;;;;16.42;7.88;;;8.50;99.90;;;;;;4935851;28;95485;-32
2022/10/09 00:21:58;;;;;;;9.40;6.60;;;8.50;99.90;;;;;;4936262;28;94762;-32
2022/10/09 00:24:24;;;;;;;16.83;8.05;;;8.40;99.90;;;;;;4937178;28;95459;-28
2022/10/09 00:26:49;;;;;;;9.88;6.43;;;8.40;99.90;;;;;;4935773;28;94704;-29
2022/10/09 00:29:15;;;;;;;15.30;6.95;;;8.40;99.90;;;;;;4936621;28;94983;-29
2022/10/09 00:31:41;;;;;;;21.25;7.22;;;8.40;99.90;;;;;;4937027;28;94080;-31
2022/10/09 00:34:06;;;;;;;10.70;6.35;;;8.40;99.90;;;;;;4940481;28;92876;-32
2022/10/09 00:36:32;;;;;;;7.97;7.05;;;8.30;99.90;;;;;;4939588;28;93882;-29
2022/10/09 00:38:57;;;;;;;12.40;6.28;;;8.30;99.90;;;;;;4939192;28;94737;-31
2022/10/09 00:41:25;;;;;;;17.02;8.38;;;8.30;99.90;;;;;;4939861;28;94625;-29
2022/10/09 00:44:00;;;;;;;9.35;7.60;;;8.30;99.90;;;;;;4939463;28;94289;-29
2022/10/09 00:46:51;;;;;;;9.93;7.65;;;8.30;99.90;;;;;;4939377;28;93557;-30
2022/10/09 00:49:25;;;;;;;13.45;7.60;;;8.30;99.90;;;;;;4939136;28;94914;-30
2022/10/09 00:51:52;;;;;;;13.02;7.82;;;8.30;99.90;;;;;;4974534;22;94695;-30
2022/10/09 00:54:21;;;;;;;11.95;7.53;;;8.20;99.90;;;;;;4970411;28;94442;-35
2022/10/09 00:56:48;;;;;;;11.38;6.70;;;8.20;99.90;;;;;;4978635;28;92559;-31
2022/10/09 00:59:15;;;;;;;17.90;7.68;;;8.20;99.90;;;;;;4978263;28;94404;-31
2022/10/09 01:01:41;;;;;;;14.82;7.82;;;8.20;99.90;;;;;;4978652;28;94452;-31
2022/10/09 01:04:06;;;;;;;13.73;7.88;;;8.20;99.90;;;;;;4978825;28;92972;-30
2022/10/09 01:06:49;;;;;;;13.85;7.90;;;8.10;99.90;;;;;;4979201;28;93838;-29
2022/10/09 01:09:34;;;;;;;11.45;8.52;;;8.10;99.90;;;;;;4977457;28;95507;-30
2022/10/09 01:12:17;;;;;;;8.00;6.68;;;8.10;99.90;;;;;;4978334;28;95441;-30
2022/10/09 01:14:57;;;;;;;12.48;7.43;;;8.10;99.90;;;;;;4978701;28;94489;-30
2022/10/09 01:17:47;;;;;;;12.32;6.82;;;8.10;99.90;;;;;;4978905;28;93941;-29
2022/10/09 01:20:24;;;;;;;19.27;7.85;;;8.10;99.90;;;;;;4978979;28;93770;-30
2022/10/09 01:23:05;;;;;;;16.45;7.15;;;8.10;99.90;;;;;;4960393;28;95587;-31
2022/10/09 01:25:52;;;;;;;11.45;7.28;;;8.00;99.90;;;;;;4979129;28;94487;-31
2022/10/09 01:28:20;;;;;;;10.70;7.72;;;8.00;99.90;;;;;;4979032;28;92637;-28
2022/10/09 01:30:46;;;;;;;13.32;6.97;;;7.90;99.90;;;;;;4978416;28;95779;-30
2022/10/09 01:33:13;;;;;;;15.75;8.25;;;7.90;99.90;;;;;;4977677;28;95696;-29
2022/10/09 01:35:40;;;;;;;14.60;7.13;;;7.90;99.90;;;;;;4977705;28;93550;-29
2022/10/09 01:38:06;;;;;;;18.63;7.93;;;7.90;99.90;;;;;;4978365;28;92579;-30
2022/10/09 01:40:33;;;;;;;17.38;7.95;;;7.90;99.90;;;;;;4977675;28;94510;-30
2022/10/09 01:42:58;;;;;;;9.18;6.75;;;7.80;99.90;;;;;;4978230;28;94281;-31
2022/10/09 01:45:24;;;;;;;9.55;7.47;;;7.80;99.90;;;;;;4977744;28;94488;-31
2022/10/09 01:47:49;;;;;;;11.48;7.53;;;7.80;99.90;;;;;;4978015;28;92659;-31
2022/10/09 01:50:24;;;;;;;12.52;7.50;;;7.80;99.90;;;;;;4977875;28;95854;-31
2022/10/09 01:52:59;;;;;;;15.00;7.00;;;7.70;99.90;;;;;;4977362;28;94718;-30
2022/10/09 01:55:49;;;;;;;10.85;6.57;;;7.70;99.90;;;;;;4979088;28;93796;-29
2022/10/09 01:58:34;;;;;;;13.25;8.20;;;7.70;99.90;;;;;;4978293;28;93427;-30
2022/10/09 02:01:06;;;;;;;10.73;7.13;;;7.70;99.90;;;;;;4949864;28;95232;-29
2022/10/09 02:03:34;;;;;;;9.82;7.32;;;7.70;99.90;;;;;;4978150;28;95637;-30
2022/10/09 02:06:02;;;;;;;14.02;7.68;;;7.70;99.90;;;;;;4977507;28;94657;-30
2022/10/09 02:08:31;;;;;;;19.33;7.72;;;7.70;99.90;;;;;;4977878;28;92560;-30
2022/10/09 02:10:59;;;;;;;;;;;7.70;99.90;;;;;;4977959;28;95076;-30
2022/10/09 02:13:24;;;;;;;16.45;7.07;;;7.70;99.90;;;;;;4978539;28;94491;-31
2022/10/09 02:15:57;;;;;;;17.40;7.82;;;7.70;99.90;;;;;;4977758;28;92188;-31
2022/10/09 02:18:34;;;;;;;9.90;7.03;;;7.70;99.90;;;;;;4977925;28;92664;-30
2022/10/09 02:21:07;;;;;;;13.55;7.15;;;7.70;99.90;;;;;;4977614;28;93815;-30
2022/10/09 02:23:35;;;;;;;12.20;7.93;;;7.70;99.90;;;;;;4977397;28;94460;-31
2022/10/09 02:26:01;;;;;;;11.57;7.82;;;7.60;99.90;;;;;;4976646;28;94117;-31
2022/10/09 02:28:26;;;;;;;17.00;8.00;;;7.60;99.90;;;;;;4978042;28;94886;-30
2022/10/09 02:31:06;;;;;;;11.85;7.80;;;7.60;99.90;;;;;;4977066;28;94741;-28
2022/10/09 02:33:33;;;;;;;10.65;6.85;;;7.60;99.90;;;;;;4965220;28;94053;-30
2022/10/09 02:36:00;;;;;;;9.88;6.93;;;7.60;99.90;;;;;;4977006;28;93721;-33
2022/10/09 02:38:25;;;;;;;13.25;7.53;;;7.60;99.90;;;;;;4971390;28;94441;-29
2022/10/09 02:40:51;;;;;;;16.48;7.78;;;7.50;99.90;;;;;;4969089;28;94690;-30
2022/10/09 02:43:17;;;;;;;11.25;7.80;;;7.50;99.90;;;;;;4959683;28;94498;-32
2022/10/09 02:45:42;;;;;;;16.98;8.32;;;7.50;99.90;;;;;;4967299;28;94346;-28
2022/10/09 02:48:08;;;;;;;11.18;7.82;;;7.50;99.90;;;;;;4977391;28;93483;-31
2022/10/09 02:50:35;;;;;;;10.38;6.97;;;7.50;99.90;;;;;;4976695;28;97435;-28
2022/10/09 02:53:00;;;;;;;9.10;7.63;;;7.50;99.90;;;;;;4975616;28;95021;-28
2022/10/09 02:55:26;;;;;;;11.45;7.90;;;7.50;99.90;;;;;;4955457;28;93464;-28
2022/10/09 02:57:51;;;;;;;10.48;7.65;;;7.50;99.90;;;;;;4943068;28;94865;-30
2022/10/09 03:00:17;;;;;;;14.30;8.00;;;7.50;99.90;;;;;;4957184;28;94221;-32
2022/10/09 03:02:42;;;;;;;12.50;7.95;;;7.50;99.90;;;;;;4968335;28;94464;-29
2022/10/09 03:05:09;;;;;;;13.68;7.90;;;7.50;99.90;;;;;;4977093;28;92067;-33
2022/10/09 03:07:35;;;;;;;9.50;7.63;;;7.40;99.90;;;;;;4977482;28;94219;-29
2022/10/09 03:10:00;;;;;;;8.75;6.90;;;7.40;99.90;;;;;;4976028;28;95131;-31
2022/10/09 03:12:26;;;;;;;7.10;6.45;;;7.40;99.90;;;;;;4976785;28;94715;-30
2022/10/09 03:14:51;;;;;;;9.60;7.00;;;7.40;99.90;;;;;;4976498;28;94282;-31
2022/10/09 03:17:17;;;;;;;16.50;7.82;;;7.40;99.90;;;;;;4977282;28;92561;-28
2022/10/09 03:19:42;;;;;;;10.48;7.68;;;7.40;99.90;;;;;;4976986;28;95087;-30
2022/10/09 03:22:08;;;;;;;14.60;7.55;;;7.40;99.90;;;;;;4976249;28;94714;-29
2022/10/09 03:24:34;;;;;;;7.53;6.78;;;7.30;99.90;;;;;;4976810;28;93310;-32
2022/10/09 03:26:59;;;;;;;14.05;7.53;;;7.40;99.90;;;;;;4976302;28;92558;-32
2022/10/09 03:29:25;;;;;;;16.40;7.53;;;7.30;99.90;;;;;;4976276;28;94961;-32
2022/10/09 03:31:50;;;;;;;7.45;6.75;;;7.30;99.90;;;;;;4976462;28;94328;-31
2022/10/09 03:34:16;;;;;;;12.00;7.53;;;7.30;99.90;;;;;;4977198;28;94318;-29
2022/10/09 03:36:42;;;;;;;16.52;6.95;;;7.30;99.90;;;;;;4976233;28;92184;-31
2022/10/09 03:39:07;;;;;;;15.73;8.48;;;7.30;99.90;;;;;;4975452;28;95205;-29
2022/10/09 03:41:33;;;;;;;12.88;8.10;;;7.30;99.90;;;;;;4976566;28;95339;-32
2022/10/09 03:43:59;;;;;;;12.93;9.43;;;7.30;99.90;;;;;;4976432;28;93105;-30
2022/10/09 03:46:24;;;;;;;7.60;6.65;;;7.30;99.90;;;;;;4977135;28;94296;-29
2022/10/09 03:48:50;;;;;;;13.93;9.00;;;7.30;99.90;;;;;;4975786;28;94720;-30
2022/10/09 03:51:15;;;;;;;8.82;7.35;;;7.30;99.90;;;;;;4976187;28;94616;-29
2022/10/09 03:53:41;;;;;;;14.43;7.65;;;7.30;99.90;;;;;;4976130;28;92135;-30
2022/10/09 03:56:06;;;;;;;8.48;7.60;;;7.30;99.90;;;;;;4976744;28;92381;-29
2022/10/09 03:58:32;;;;;;;11.93;8.73;;;7.30;99.90;;;;;;4976900;28;94407;-31
2022/10/09 04:00:57;;;;;;;15.73;8.27;;;7.30;99.90;;;;;;4975556;28;94623;-32
2022/10/09 04:03:23;;;;;;;23.38;8.32;;;7.30;99.90;;;;;;4975929;28;94861;-32
2022/10/09 04:05:49;;;;;;;13.32;7.78;;;7.30;99.90;;;;;;4975621;28;92161;-28
2022/10/09 04:08:15;;;;;;;16.45;8.23;;;7.20;99.90;;;;;;4979042;28;95020;-30
2022/10/09 04:10:40;;;;;;;11.80;8.65;;;7.20;99.90;;;;;;4979470;28;94487;-28
2022/10/09 04:13:06;;;;;;;13.00;7.63;;;7.20;99.90;;;;;;4980190;28;92152;-29
2022/10/09 04:15:32;;;;;;;13.32;8.65;;;7.10;99.90;;;;;;4979776;28;93446;-29
2022/10/09 04:17:57;;;;;;;10.18;8.25;;;7.10;99.90;;;;;;4978695;28;94821;-31
2022/10/09 04:20:23;;;;;;;14.00;7.72;;;7.10;99.90;;;;;;4979742;28;95523;-30
2022/10/09 04:22:48;;;;;;;10.15;7.35;;;7.10;99.90;;;;;;4979582;28;94125;-29
2022/10/09 04:25:14;;;;;;;11.43;8.20;;;7.20;99.90;;;;;;4972745;28;93964;-32
2022/10/09 04:27:40;;;;;;;10.38;8.30;;;7.20;99.90;;;;;;4975076;28;94771;-30
2022/10/09 04:30:06;;;;;;;19.50;8.30;;;7.20;99.90;;;;;;4960788;28;95127;-31
2022/10/09 04:32:32;;;;;;;10.23;8.52;;;7.20;99.90;;;;;;4979539;28;93099;-29
2022/10/09 04:34:57;;;;;;;14.63;8.48;;;7.20;99.90;;;;;;4978938;28;92991;-31
2022/10/09 04:37:23;;;;;;;11.75;8.80;;;7.20;99.90;;;;;;4979404;28;94233;-30
2022/10/09 04:39:48;;;;;;;9.15;7.97;;;7.20;99.90;;;;;;4979025;28;94830;-29
2022/10/09 04:42:14;;;;;;;9.70;8.70;;;7.10;99.90;;;;;;4979174;28;94457;-30
2022/10/09 04:44:39;;;;;;;10.85;8.00;;;7.10;99.90;;;;;;4979259;28;91409;-32
2022/10/09 04:47:05;;;;;;;8.85;7.93;;;7.10;99.90;;;;;;4968702;28;94938;-32
2022/10/09 04:49:30;;;;;;;14.40;8.60;;;7.10;99.90;;;;;;4979029;28;94568;-32
2022/10/09 04:51:56;;;;;;;16.02;8.73;;;7.10;99.90;;;;;;4977675;28;94036;-33
2022/10/09 04:54:22;;;;;;;10.88;7.80;;;7.00;99.90;;;;;;4978439;28;93374;-32
2022/10/09 04:56:47;;;;;;;12.18;8.60;;;7.00;99.90;;;;;;4978405;28;95131;-29
2022/10/09 04:59:13;;;;;;;11.98;8.77;;;7.00;99.90;;;;;;4960526;28;94639;-32
2022/10/09 05:01:38;;;;;;;15.55;9.70;;;7.00;99.90;;;;;;4979608;28;94576;-30
2022/10/09 05:04:04;;;;;;;12.30;10.00;;;6.90;99.90;;;;;;4977968;28;94612;-29
2022/10/09 05:06:30;;;;;;;19.10;9.52;;;6.90;99.90;;;;;;4977750;28;94870;-32
2022/10/09 05:08:55;;;;;;;16.35;9.40;;;6.90;99.90;;;;;;4977948;28;94637;-31
2022/10/09 05:11:24;;;;;;;14.15;9.93;;;6.90;99.90;;;;;;4979258;28;94397;-33
2022/10/09 05:13:55;;;;;;;18.88;9.88;;;6.90;99.90;;;;;;4977925;28;93698;-31
2022/10/09 05:16:23;;;;;;;12.13;10.80;;;6.90;99.90;;;;;;4978248;28;95636;-32
2022/10/09 05:18:53;;;;;;;17.08;9.45;;;6.90;99.90;;;;;;4976558;28;95541;-31
2022/10/09 05:21:19;;;;;;;13.63;9.73;;;6.80;99.90;;;;;;4978914;28;92708;-29
2022/10/09 05:23:46;;;;;;;11.00;8.55;;;6.80;99.90;;;;;;4978378;28;93324;-29
2022/10/09 05:26:14;;;;;;;16.77;10.43;;;6.80;99.90;;;;;;4978468;28;94044;-28
2022/10/09 05:28:40;;;;;;;14.52;10.13;;;6.80;99.90;;;;;;4977215;28;94217;-31
2022/10/09 05:31:07;;;;;;;20.48;10.77;;;6.80;99.90;;;;;;4977888;28;92296;-29
2022/10/09 05:33:33;;;;;;;13.50;9.07;;;6.80;99.90;;;;;;4977384;28;92752;-33
2022/10/09 05:36:01;;;;;;;15.45;10.73;;;6.80;99.90;;;;;;4977570;28;94417;-28
2022/10/09 05:38:27;;;;;;;11.70;10.20;;;6.80;99.90;;;;;;4978597;28;94689;-32
2022/10/09 05:40:54;;;;;;;15.13;9.40;;;6.70;99.90;;;;;;4977217;28;93230;-32
2022/10/09 05:43:21;;;;;;;10.77;9.40;;;6.70;99.90;;;;;;4977628;28;94241;-31
2022/10/09 05:45:47;;;;;;;12.70;9.73;;;6.70;99.90;;;;;;4977800;28;94821;-32
2022/10/09 05:48:13;;;;;;;15.82;11.43;;;6.70;99.90;;;;;;4977999;28;94672;-29
2022/10/09 05:50:38;;;;;;;10.85;9.30;;;6.60;99.90;;;;;;4977921;28;92132;-33
2022/10/09 05:53:04;;;;;;;12.40;8.32;;;6.60;99.90;;;;;;4977331;28;94507;-29
2022/10/09 05:55:29;;;;;;;12.65;9.65;;;6.60;99.90;;;;;;4977303;28;94772;-29
2022/10/09 05:57:55;;;;;;;13.13;9.13;;;6.50;99.90;;;;;;4960495;28;94520;-32
2022/10/09 06:00:20;;;;;;;17.48;9.48;;;6.50;99.90;;;;;;4977433;28;92222;-30
2022/10/09 06:02:46;;;;;;;11.75;8.82;;;6.50;99.90;;;;;;4978018;28;94103;-29
2022/10/09 06:05:12;;;;;;;11.32;8.90;;;6.50;99.90;;;;;;4976651;28;95740;-29
2022/10/09 06:07:37;;;;;;;10.93;9.80;;;6.50;99.90;;;;;;4977406;28;95001;-32
2022/10/09 06:10:04;;;;;;;12.18;8.52;;;6.50;99.90;;;;;;4978198;28;93052;-30
2022/10/09 06:12:29;;;;;;;13.45;10.07;;;6.40;99.90;;;;;;4976780;28;92994;-33
2022/10/09 06:14:55;;;;;;;17.75;9.77;;;6.40;99.90;;;;;;4976651;28;94599;-29
2022/10/09 06:17:20;;;;;;;15.05;9.85;;;6.40;99.90;;;;;;4977170;28;94637;-30
2022/10/09 06:19:46;;;;;;;12.25;9.60;;;6.40;99.90;;;;;;4977433;28;93480;-29
2022/10/09 06:22:11;;;;;;;11.45;9.30;;;6.40;99.90;;;;;;4977644;28;91819;-28
2022/10/09 06:24:37;;;;;;;12.88;9.88;;;6.40;99.90;;;;;;4976587;28;94718;-31
2022/10/09 06:27:03;;;;;;;14.63;9.93;;;6.40;99.90;;;;;;4977247;28;94531;-28
2022/10/09 06:29:29;;;;;;;12.82;8.98;;;6.40;99.90;;;;;;4975679;28;95133;-31
2022/10/09 06:31:55;;;;;;;11.43;9.23;;;6.40;99.90;;;;;;4977899;28;94216;-29
2022/10/09 06:34:21;;;;;;;9.85;8.93;;;6.40;99.90;;;;;;4976856;28;95130;-31
2022/10/09 06:36:46;;;;;;;10.18;8.63;;;6.40;99.90;;;;;;4976840;28;94097;-31
2022/10/09 06:39:12;;;;;;;10.55;8.70;;;6.40;99.90;;;;;;4977817;28;94496;-30
2022/10/09 06:41:38;;;;;;;9.43;8.50;;;6.40;99.90;;;;;;4976941;28;93132;-30
2022/10/09 06:44:06;;;;;;;15.60;9.82;;;6.40;99.90;;;;;;4977257;28;94687;-30
2022/10/09 06:46:38;;;;;;;15.27;9.97;;;6.40;99.90;;;;;;4977236;28;94602;-28
2022/10/09 06:49:04;;;;;;;17.73;9.75;;;6.50;99.90;;;;;;4967076;28;92862;-31
2022/10/09 06:51:30;;;;;;;15.73;9.98;;;6.60;99.90;;;;;;4973875;28;94692;-28
2022/10/09 06:53:58;;;;;;;19.27;9.32;;;6.70;99.90;;;;;;4975073;28;95813;-29
2022/10/09 06:56:27;;;;;;;12.35;9.82;;;6.70;99.90;;;;;;4976975;28;92571;-31
2022/10/09 06:58:53;;;;;;;14.25;10.73;;;6.80;99.90;;;;;;4977128;28;93131;-33
2022/10/09 07:01:20;;;;;;;11.82;10.50;;;6.90;99.90;;;;;;4976707;28;93541;-30
2022/10/09 07:03:50;;;;;;;14.30;10.35;;;7.00;99.90;;;;;;4975026;28;94920;-31
2022/10/09 07:06:21;;;;;;;16.63;11.50;;;7.00;99.90;;;;;;4976277;28;93671;-32
2022/10/09 07:08:49;;;;;;;12.50;11.00;;;7.10;99.90;;;;;;4976025;28;94237;-29
2022/10/09 07:11:24;;;;;;;17.98;11.70;;;7.20;99.90;;;;;;4976265;28;93650;-28
2022/10/09 07:13:55;;;;;;;13.93;12.13;;;7.40;99.90;;;;;;4976055;28;94789;-30
2022/10/09 07:16:24;;;;;;;16.88;12.77;;;7.40;99.90;;;;;;4976021;28;94833;-30
2022/10/09 07:18:49;;;;;;;18.52;13.30;;;7.50;99.90;;;;;;4975775;28;94993;-33
2022/10/09 07:21:15;;;;;;;16.95;12.95;;;7.60;99.90;;;;;;4957960;28;93525;-31
2022/10/09 07:23:41;;;;;;;23.70;13.90;;;7.70;99.90;;;;;;4975168;28;94337;-31
2022/10/09 07:26:15;;;;;;;19.33;13.52;;;7.80;99.90;;;;;;4975881;28;94849;-29
2022/10/09 07:28:42;;;;;;;16.13;14.20;;;7.90;99.90;;;;;;4976290;28;93141;-30
2022/10/09 07:31:08;;;;;;;18.50;14.35;;;8.10;99.90;;;;;;4975687;28;93266;-30
2022/10/09 07:33:34;;;;;;;15.93;13.27;;;8.10;99.90;;;;;;4945862;28;93815;-32
2022/10/09 07:36:01;;;;;;;20.95;15.30;;;8.30;99.90;;;;;;4941564;28;94345;-32
2022/10/09 07:38:27;;;;;;;17.13;13.20;;;8.40;99.90;;;;;;4954248;28;93409;-29
2022/10/09 07:40:53;;;;;;;18.50;14.77;;;8.50;99.90;;;;;;4954772;28;93504;-31
2022/10/09 07:43:20;;;;;;;18.33;13.93;;;8.60;99.90;;;;;;4956108;28;95733;-29
2022/10/09 07:45:46;;;;;;;16.63;14.40;;;8.70;99.90;;;;;;4954327;28;95917;-33
2022/10/09 07:48:12;;;;;;;17.85;14.10;;;8.90;99.90;;;;;;4957042;28;93511;-31
2022/10/09 07:50:38;;;;;;;18.20;13.82;;;8.90;99.90;;;;;;4956716;28;93904;-30
2022/10/09 07:53:04;;;;;;;17.58;13.57;;;9.10;99.90;;;;;;4956605;28;94891;-31
2022/10/09 07:55:29;;;;;;;16.00;11.82;;;9.20;99.90;;;;;;4956230;28;94574;-30
2022/10/09 07:57:55;;;;;;;18.67;13.13;;;9.30;99.90;;;;;;4957307;28;93854;-30
2022/10/09 08:00:20;;;;;;;16.60;13.55;;;9.40;99.90;;;;;;4957024;28;93449;-30
2022/10/09 08:02:46;;;;;;;18.50;12.93;;;9.50;99.90;;;;;;4963730;28;94570;-33
2022/10/09 08:05:12;;;;;;;17.90;11.63;;;9.60;99.90;;;;;;4975735;28;94412;-32
2022/10/09 08:07:37;;;;;;;18.08;11.77;;;9.80;99.90;;;;;;4975956;28;95691;-34
2022/10/09 08:10:04;;;;;;;14.77;12.07;;;9.90;99.90;;;;;;4976216;28;94223;-28
2022/10/09 08:12:30;;;;;;;19.77;11.93;;;10.00;99.90;;;;;;4976486;28;94315;-29
2022/10/09 08:14:55;;;;;;;23.00;12.88;;;10.10;99.90;;;;;;4955933;28;94541;-30
2022/10/09 08:17:21;;;;;;;15.52;10.98;;;10.20;99.90;;;;;;4956448;28;92141;-31
2022/10/09 08:19:46;;;;;;;22.00;12.38;;;10.30;99.90;;;;;;4955410;28;93257;-32
2022/10/09 08:22:12;;;;;;;13.82;11.13;;;10.30;99.90;;;;;;4956267;28;94174;-29
2022/10/09 08:24:38;;;;;;;13.88;11.35;;;10.40;99.90;;;;;;4955339;28;94614;-28
2022/10/09 08:27:04;;;;;;;16.00;10.63;;;10.50;99.90;;;;;;4956282;28;93677;-33
2022/10/09 08:29:30;;;;;;;17.90;10.18;;;10.60;99.90;;;;;;4956557;28;94541;-29
2022/10/09 08:31:56;;;;;;;14.27;9.55;;;10.70;99.90;;;;;;4955181;28;95701;-32
2022/10/09 08:34:21;;;;;;;15.60;10.32;;;10.80;99.90;;;;;;4956868;28;95327;-29
2022/10/09 08:36:49;;;;;;;12.70;9.32;;;10.90;99.90;;;;;;4955540;28;94357;-29
2022/10/09 08:39:14;;;;;;;11.40;9.90;;;11.00;99.90;;;;;;4956921;28;94531;-34
2022/10/09 08:41:46;;;;;;;15.93;8.80;;;11.20;99.90;;;;;;4956542;28;95016;-31
2022/10/09 08:44:22;;;;;;;18.13;9.65;;;11.30;99.90;;;;;;4956375;28;95124;-29
2022/10/09 08:47:12;;;;;;;13.82;10.07;;;11.40;99.90;;;;;;4956613;28;93408;-29
2022/10/09 08:49:51;;;;;;;11.75;9.20;;;11.50;99.90;;;;;;4955671;28;93714;-29
2022/10/09 08:52:43;;;;;;;14.65;9.63;;;11.60;99.90;;;;;;4961711;28;95123;-30
2022/10/09 08:55:27;;;;;;;11.43;8.82;;;11.70;99.90;;;;;;4975625;28;94601;-31
2022/10/09 08:57:56;;;;;;;10.50;8.68;;;11.80;99.90;;;;;;4965090;28;94119;-32
2022/10/09 09:00:22;;;;;;;;;;;11.90;99.90;;;;;;4977442;28;93250;-32
2022/10/09 09:03:03;;;;;;;17.80;8.75;;;12.10;99.90;;;;;;4977352;28;95099;-30
2022/10/09 09:05:51;;;;;;;13.55;8.65;;;12.20;99.90;;;;;;4973028;28;93879;-32
2022/10/09 09:08:44;;;;;;;28.95;9.00;;;12.20;99.90;;;;;;4955295;28;94339;-33
2022/10/09 09:11:32;;;;;;;13.95;7.93;;;12.40;99.90;;;;;;4954411;28;93369;-30
2022/10/09 09:14:25;;;;;;;20.30;8.75;;;12.50;99.90;;;;;;4955243;28;94747;-29
2022/10/09 09:17:00;;;;;;;16.40;7.43;;;12.50;99.90;;;;;;4970433;28;93358;-31
2022/10/09 09:19:39;;;;;;;8.50;6.43;;;12.60;99.90;;;;;;4951313;28;94515;-31
2022/10/09 09:22:12;;;;;;;15.20;7.40;;;12.70;99.90;;;;;;4975792;28;92584;-32
2022/10/09 09:24:49;;;;;;;11.82;6.65;;;12.70;99.90;;;;;;4975049;28;96133;-29
2022/10/09 09:27:28;;;;;;;8.80;5.60;;;12.80;99.90;;;;;;4976194;28;95562;-29
2022/10/09 09:30:25;;;;;;;17.30;7.28;;;12.80;99.90;;;;;;4961524;28;93232;-33
2022/10/09 09:33:20;;;;;;;9.60;5.75;;;12.90;99.90;;;;;;4955604;28;93392;-33
2022/10/09 09:36:04;;;;;;;10.45;5.60;;;13.00;99.90;;;;;;4955624;28;95077;-30
2022/10/09 09:38:29;;;;;;;12.55;5.20;;;13.00;99.90;;;;;;4949582;28;95547;-30
2022/10/09 09:40:55;;;;;;;11.85;6.43;;;13.10;99.90;;;;;;4948092;28;93339;-30
2022/10/09 09:43:24;;;;;;;8.90;6.38;;;13.20;99.90;;;;;;4956029;28;93655;-30
2022/10/09 09:45:55;;;;;;;6.68;5.38;;;13.20;99.90;;;;;;4954163;28;95606;-30
2022/10/09 09:48:40;;;;;;;10.48;5.90;;;13.30;99.90;;;;;;4954883;28;93941;-31
2022/10/09 09:51:23;;;;;;;6.22;4.80;;;13.40;99.90;;;;;;4955036;28;94022;-32
2022/10/09 09:53:52;;;;;;;10.10;4.78;;;13.50;99.90;;;;;;4954824;28;94366;-31
2022/10/09 09:56:18;;;;;;;5.47;4.32;;;13.50;99.90;;;;;;4960545;28;95313;-31
2022/10/09 09:58:54;;;;;;;9.65;5.22;;;13.60;99.90;;;;;;4955909;28;94513;-30
2022/10/09 10:01:22;;;;;;;6.72;4.88;;;13.60;99.90;;;;;;4948377;28;94251;-30
2022/10/09 10:03:49;;;;;;;7.28;5.47;;;13.60;99.90;;;;;;4970698;28;94204;-31
2022/10/09 10:06:29;;;;;;;8.30;5.03;;;13.70;99.90;;;;;;4974683;28;93876;-30
2022/10/09 10:09:00;;;;;;;7.55;4.82;;;13.70;99.90;;;;;;4975101;28;94445;-32
2022/10/09 10:11:27;;;;;;;9.20;4.90;;;13.70;99.90;;;;;;4975599;28;94046;-30
2022/10/09 10:13:53;;;;;;;12.40;5.32;;;13.70;99.90;;;;;;4974483;28;92340;-29
2022/10/09 10:16:25;;;;;;;8.88;4.97;;;13.70;99.90;;;;;;4974907;28;96016;-31
2022/10/09 10:18:52;;;;;;;10.25;5.53;;;13.80;99.90;;;;;;4941567;28;94744;-31
2022/10/09 10:21:19;;;;;;;4.65;3.72;;;13.80;99.90;;;;;;4941445;28;92135;-31
2022/10/09 10:23:52;;;;;;;10.23;4.40;;;13.90;99.90;;;;;;4954999;28;93517;-31
2022/10/09 10:26:27;;;;;;;7.13;4.65;;;13.90;99.90;;;;;;4954680;28;94987;-30
2022/10/09 10:29:02;;;;;;;10.68;4.93;;;14.00;99.90;;;;;;4955369;28;94118;-31
2022/10/09 10:31:58;;;;;;;4.97;3.42;;;14.00;99.90;;;;;;4954911;28;95232;-33
2022/10/09 10:34:31;;;;;;;6.45;4.95;;;14.10;99.90;;;;;;4954812;28;92820;-31
2022/10/09 10:37:12;;;;;;;15.88;4.13;;;14.20;99.90;;;;;;4945985;28;95571;-31
2022/10/09 10:39:58;;;;;;;10.80;4.25;;;14.20;99.90;;;;;;4954734;28;94800;-31
2022/10/09 10:42:35;;;;;;;7.10;3.90;;;14.30;99.90;;;;;;4954585;28;93977;-30
2022/10/09 10:45:19;;;;;;;10.57;4.18;;;14.40;99.90;;;;;;4954311;28;93432;-30
2022/10/09 10:47:52;;;;;;;6.30;3.50;;;14.50;99.90;;;;;;4954763;28;96801;-32
2022/10/09 10:50:19;;;;;;;6.07;3.65;;;14.50;99.90;;;;;;4955161;28;95256;-31
2022/10/09 10:52:53;;;;;;;6.35;4.00;;;14.60;99.90;;;;;;4954979;28;93281;-30
2022/10/09 10:55:36;;;;;;;7.82;3.38;;;14.70;99.90;;;;;;4954591;28;94418;-33
2022/10/09 10:58:28;;;;;;;3.90;3.08;;;14.70;99.90;;;;;;4954262;28;96154;-32
2022/10/09 11:01:29;;;;;;;4.18;2.40;;;14.90;99.90;;;;;;4919074;28;94405;-33
2022/10/09 11:04:17;;;;;;;5.82;2.53;;;14.90;99.90;;;;;;4971128;28;93393;-32
2022/10/09 11:07:13;;;;;;;8.02;3.30;;;15.00;99.90;;;;;;4974132;28;92155;-31
2022/10/09 11:10:15;;;;;;;6.72;3.10;;;15.00;99.90;;;;;;4973713;28;95856;-33
2022/10/09 11:13:12;;;;;;;3.05;2.63;;;15.10;99.90;;;;;;4974447;28;95428;-31
2022/10/09 11:16:02;;;;;;;7.82;3.03;;;15.10;99.90;;;;;;4974132;28;93866;-32
2022/10/09 11:19:05;;;;;;;4.53;2.83;;;15.20;99.90;;;;;;4974976;28;94255;-29
2022/10/09 11:21:44;;;;;;;8.65;3.13;;;15.30;99.90;;;;;;4962055;28;94699;-30
2022/10/09 11:24:26;;;;;;;7.03;2.30;;;15.40;99.90;;;;;;4973979;28;93559;-32
2022/10/09 11:27:25;;;;;;;9.20;2.80;;;15.30;99.90;;;;;;4974467;28;93874;-33
2022/10/09 11:29:51;;;;;;;3.28;2.20;;;15.40;99.90;;;;;;4974766;28;92904;-31
2022/10/09 11:32:23;;;;;;;3.10;2.08;;;15.40;99.90;;;;;;4973707;28;94836;-32
2022/10/09 11:35:11;;;;;;;5.88;2.10;;;15.40;99.90;;;;;;4974245;28;94808;-29
2022/10/09 11:37:39;;;;;;;;;;;15.40;99.90;;;;;;4974968;28;94399;-33
2022/10/09 11:40:16;;;;;;;7.78;1.83;;;15.50;99.90;;;;;;4975416;28;93810;-31
2022/10/09 11:42:46;;;;;;;2.30;2.10;;;15.60;99.90;;;;;;4974203;28;95065;-30
2022/10/09 11:45:18;;;;;;;6.50;3.17;;;15.70;99.90;;;;;;4973576;28;95497;-31
2022/10/09 11:48:04;;;;;;;6.20;2.35;;;15.70;99.90;;;;;;4974428;28;93544;-33
2022/10/09 11:50:58;;;;;;;3.38;2.30;;;15.60;99.90;;;;;;4950480;28;93376;-32
2022/10/09 11:53:26;;;;;;;4.40;1.63;;;15.60;99.90;;;;;;4973837;28;94186;-33
2022/10/09 11:56:06;;;;;;;3.20;2.28;;;15.70;99.90;;;;;;4974982;28;94567;-30
2022/10/09 11:58:32;;;;;;;2.40;1.35;;;15.80;99.90;;;;;;4974629;28;94047;-32
2022/10/09 12:01:11;;;;;;;2.35;2.15;;;15.90;99.90;;;;;;4974027;28;93489;-29
2022/10/09 12:03:38;;;;;;;4.63;1.90;;;16.00;99.90;;;;;;4972092;28;97680;-31
2022/10/09 12:06:13;;;;;;;7.93;2.38;;;16.10;99.90;;;;;;4973325;28;95452;-31
2022/10/09 12:09:02;;;;;;;2.45;2.22;;;16.10;99.90;;;;;;4974711;28;92594;-34
2022/10/09 12:11:28;;;;;;;6.28;2.58;;;16.10;99.90;;;;;;4973852;28;93348;-32
2022/10/09 12:13:57;;;;;;;1.90;1.63;;;16.10;99.90;;;;;;4972963;28;95692;-32
2022/10/09 12:16:42;;;;;;;7.20;2.22;;;16.20;99.90;;;;;;4973862;28;94884;-31
2022/10/09 12:19:34;;;;;;;3.22;1.73;;;16.20;99.90;;;;;;4974447;28;93108;-30
2022/10/09 12:22:05;;;;;;;5.13;2.53;;;16.20;99.90;;;;;;4973422;28;94071;-31
2022/10/09 12:24:36;;;;;;;11.68;2.03;;;16.30;99.90;;;;;;4973134;28;94851;-31
2022/10/09 12:27:03;;;;;;;6.43;3.03;;;16.40;99.90;;;;;;4973917;28;94507;-30
2022/10/09 12:29:52;;;;;;;7.55;2.42;;;16.50;99.90;;;;;;4975795;28;94675;-33
2022/10/09 12:32:32;;;;;;;2.78;2.58;;;16.50;99.90;;;;;;4976809;28;92128;-30
2022/10/09 12:34:59;;;;;;;5.22;2.70;;;16.40;99.90;;;;;;4975702;28;95551;-32
2022/10/09 12:37:33;;;;;;;2.33;1.70;;;16.40;99.90;;;;;;4976129;28;95208;-33
2022/10/09 12:40:19;;;;;;;4.55;1.92;;;16.40;99.90;;;;;;4977278;28;94647;-29
2022/10/09 12:42:46;;;;;;;6.10;2.40;;;16.40;99.90;;;;;;4976910;28;94170;-32
2022/10/09 12:45:22;;;;;;;6.25;2.97;;;16.30;99.90;;;;;;4976198;28;95163;-31
2022/10/09 12:47:49;;;;;;;6.28;2.83;;;16.30;99.90;;;;;;4976665;28;94717;-34
2022/10/09 12:50:21;;;;;;;4.57;2.47;;;16.30;99.90;;;;;;4977067;28;94394;-31
2022/10/09 12:53:17;;;;;;;5.05;2.30;;;16.30;99.90;;;;;;5003886;22;92847;-30
2022/10/09 12:55:49;;;;;;;4.22;2.55;;;16.30;99.90;;;;;;4956932;28;96020;-32
2022/10/09 12:58:24;;;;;;;8.38;3.25;;;16.40;99.90;;;;;;4976149;28;95431;-33
2022/10/09 13:00:55;;;;;;;10.95;3.75;;;16.40;99.90;;;;;;4976541;28;94154;-30
2022/10/09 13:03:57;;;;;;;6.10;3.25;;;16.40;99.90;;;;;;4976870;28;94113;-33